Schulte, Kansas
Current Conditions -  °F | °C
As of 7:53 PM on Monday 24 Nov 2014 (Local Time) from KICT Reporting Station
Few Clouds Few Clouds  
Wind Chill: 33°   Ceiling: Unl
Heat Index: 38°   Visibility: 10mi
Dew Point: 18°   Wind: 6mph
Humidity: 44%   Direction: 350°N
Pressure: 30.07"   Gusts: NA
Location:  37.6181°N, 97.4387°W
Report Text: KICT 250153Z 35005KT 10SM FEW250 03/M08 A3007 RMK AO2 SLP190 T00331078
Loading
Personal Weather Stations






























Interactive Weather Map New forecast layout! Learn more

10-Day Weather Forecast

Advertisements
Track Severe Weather on mobile